CAP458 VHHH-RCKH
Flight info
| Callsign | CAP458 |
|---|---|
| Flight time | 1h 1m |
| Altitude | 39000 |
| Route | DALOL V631 ENVAR M750 DADON G581 PORCH |
| Aircraft | A359/H-SDE2E3GHIJ3J4J5LM1ORWXY/LB1D1 |
Departure
| Time | 2026-04-24 12:37 |
|---|---|
| Airport | Hong Kong International Airport (VHHH) |
Arrival
| Time | 2026-04-24 13:38 |
|---|---|
| Airport | Kaohsiung International Airport (RCKH) |
| Time | Latitude | Longitude | Altitude | Speed | Heading |
|---|---|---|---|---|---|
| 2026-04-24 11:59 | 22.31606 | 113.93286 | 42 ft | 0 kts | 109° |
| 2026-04-24 12:17 | 22.31610 | 113.93271 | 41 ft | 4 kts | 97° |
| 2026-04-24 12:17 | 22.31613 | 113.93246 | 41 ft | 2 kts | 109° |
| 2026-04-24 12:17 | 22.31623 | 113.93222 | 38 ft | 4 kts | 127° |
| 2026-04-24 12:18 | 22.31642 | 113.93203 | 39 ft | 4 kts | 155° |
| 2026-04-24 12:18 | 22.31667 | 113.93193 | 37 ft | 3 kts | 161° |
| 2026-04-24 12:18 | 22.31689 | 113.93185 | 39 ft | 4 kts | 161° |
| 2026-04-24 12:18 | 22.31701 | 113.93181 | 40 ft | 0 kts | 161° |
| 2026-04-24 12:22 | 22.31683 | 113.93186 | 40 ft | 8 kts | 167° |
| 2026-04-24 12:22 | 22.31614 | 113.93158 | 41 ft | 12 kts | 229° |
| 2026-04-24 12:23 | 22.31585 | 113.93086 | 41 ft | 3 kts | 250° |
| 2026-04-24 12:23 | 22.31585 | 113.93085 | 41 ft | 0 kts | 250° |
| 2026-04-24 12:25 | 22.31568 | 113.93032 | 41 ft | 11 kts | 250° |
| 2026-04-24 12:25 | 22.31538 | 113.92942 | 41 ft | 14 kts | 251° |
| 2026-04-24 12:25 | 22.31499 | 113.92821 | 41 ft | 19 kts | 253° |
| 2026-04-24 12:26 | 22.31529 | 113.92681 | 41 ft | 21 kts | 296° |
| 2026-04-24 12:26 | 22.31594 | 113.92535 | 42 ft | 22 kts | 295° |
| 2026-04-24 12:26 | 22.31651 | 113.92377 | 42 ft | 23 kts | 266° |
| 2026-04-24 12:26 | 22.31595 | 113.92210 | 42 ft | 24 kts | 251° |
| 2026-04-24 12:27 | 22.31549 | 113.92077 | 42 ft | 16 kts | 236° |
| 2026-04-24 12:27 | 22.31449 | 113.92083 | 42 ft | 17 kts | 159° |
| 2026-04-24 12:27 | 22.31310 | 113.92138 | 42 ft | 24 kts | 159° |
| 2026-04-24 12:27 | 22.31146 | 113.92198 | 42 ft | 26 kts | 163° |
| 2026-04-24 12:28 | 22.30969 | 113.92265 | 41 ft | 28 kts | 160° |
| 2026-04-24 12:28 | 22.30794 | 113.92331 | 41 ft | 19 kts | 161° |
| 2026-04-24 12:28 | 22.30701 | 113.92288 | 41 ft | 17 kts | 253° |
| 2026-04-24 12:28 | 22.30662 | 113.92160 | 41 ft | 19 kts | 251° |
| 2026-04-24 12:29 | 22.30618 | 113.92017 | 41 ft | 21 kts | 251° |
| 2026-04-24 12:29 | 22.30565 | 113.91858 | 41 ft | 24 kts | 250° |
| 2026-04-24 12:29 | 22.30509 | 113.91684 | 42 ft | 25 kts | 251° |
| 2026-04-24 12:29 | 22.30450 | 113.91496 | 42 ft | 27 kts | 249° |
| 2026-04-24 12:30 | 22.30386 | 113.91299 | 42 ft | 29 kts | 251° |
| 2026-04-24 12:30 | 22.30318 | 113.91090 | 42 ft | 30 kts | 251° |
| 2026-04-24 12:30 | 22.30249 | 113.90876 | 42 ft | 32 kts | 251° |
| 2026-04-24 12:30 | 22.30171 | 113.90638 | 42 ft | 33 kts | 250° |
| 2026-04-24 12:31 | 22.30094 | 113.90398 | 42 ft | 34 kts | 251° |
| 2026-04-24 12:31 | 22.30016 | 113.90153 | 42 ft | 36 kts | 251° |
| 2026-04-24 12:31 | 22.29939 | 113.89917 | 40 ft | 22 kts | 251° |
| 2026-04-24 12:31 | 22.29837 | 113.89851 | 42 ft | 16 kts | 159° |
| 2026-04-24 12:32 | 22.29773 | 113.89877 | 42 ft | 0 kts | 160° |
| 2026-04-24 12:33 | 22.29771 | 113.89878 | 42 ft | 2 kts | 160° |
| 2026-04-24 12:33 | 22.29727 | 113.89895 | 42 ft | 9 kts | 160° |
| 2026-04-24 12:33 | 22.29669 | 113.89936 | 42 ft | 9 kts | 108° |
| 2026-04-24 12:34 | 22.29677 | 113.89974 | 42 ft | 0 kts | 69° |
| 2026-04-24 12:36 | 22.29682 | 113.89988 | 42 ft | 11 kts | 70° |
| 2026-04-24 12:36 | 22.29802 | 113.90347 | 42 ft | 90 kts | 71° |
| 2026-04-24 12:36 | 22.30084 | 113.91231 | 42 ft | 156 kts | 71° |
| 2026-04-24 12:36 | 22.30455 | 113.92424 | 554 ft | 172 kts | 70° |
| 2026-04-24 12:37 | 22.30828 | 113.93634 | 1471 ft | 170 kts | 71° |
| 2026-04-24 12:37 | 22.31218 | 113.94884 | 2086 ft | 181 kts | 72° |
| 2026-04-24 12:37 | 22.31657 | 113.96243 | 2530 ft | 202 kts | 71° |
| 2026-04-24 12:37 | 22.32147 | 113.97719 | 3064 ft | 215 kts | 71° |
| 2026-04-24 12:38 | 22.32657 | 113.99273 | 3671 ft | 225 kts | 72° |
| 2026-04-24 12:38 | 22.33186 | 114.00900 | 4303 ft | 233 kts | 72° |
| 2026-04-24 12:38 | 22.33674 | 114.02578 | 4875 ft | 237 kts | 79° |
| 2026-04-24 12:39 | 22.32201 | 114.07419 | 7179 ft | 239 kts | 143° |
| 2026-04-24 12:39 | 22.30743 | 114.08379 | 7666 ft | 254 kts | 163° |
| 2026-04-24 12:39 | 22.29054 | 114.09141 | 8115 ft | 278 kts | 149° |
| 2026-04-24 12:40 | 22.27461 | 114.10415 | 8845 ft | 290 kts | 145° |
| 2026-04-24 12:40 | 22.25842 | 114.11752 | 9677 ft | 296 kts | 146° |
| 2026-04-24 12:40 | 22.24171 | 114.13111 | 10408 ft | 307 kts | 146° |
| 2026-04-24 12:40 | 22.22396 | 114.14534 | 10804 ft | 329 kts | 146° |
| 2026-04-24 12:41 | 22.20497 | 114.16047 | 11162 ft | 350 kts | 146° |
| 2026-04-24 12:41 | 22.18492 | 114.17642 | 11572 ft | 366 kts | 146° |
| 2026-04-24 12:41 | 22.16440 | 114.19273 | 12178 ft | 375 kts | 146° |
| 2026-04-24 12:41 | 22.14321 | 114.20956 | 12839 ft | 382 kts | 146° |
| 2026-04-24 12:42 | 22.12165 | 114.22667 | 13528 ft | 387 kts | 146° |
| 2026-04-24 12:42 | 22.09981 | 114.24400 | 14174 ft | 392 kts | 146° |
| 2026-04-24 12:42 | 22.07773 | 114.26148 | 14752 ft | 397 kts | 146° |
| 2026-04-24 12:42 | 22.05534 | 114.27927 | 15333 ft | 402 kts | 146° |
| 2026-04-24 12:43 | 22.03258 | 114.29721 | 15910 ft | 407 kts | 147° |
| 2026-04-24 12:43 | 22.00990 | 114.31506 | 16478 ft | 412 kts | 147° |
| 2026-04-24 12:43 | 21.98663 | 114.33338 | 17059 ft | 417 kts | 147° |
| 2026-04-24 12:43 | 21.96313 | 114.35189 | 17640 ft | 421 kts | 147° |
| 2026-04-24 12:44 | 21.93932 | 114.37071 | 18208 ft | 426 kts | 147° |
| 2026-04-24 12:44 | 21.91532 | 114.38960 | 18727 ft | 430 kts | 147° |
| 2026-04-24 12:44 | 21.89119 | 114.40860 | 19433 ft | 427 kts | 147° |
| 2026-04-24 12:44 | 21.86830 | 114.42898 | 20073 ft | 431 kts | 138° |
| 2026-04-24 12:45 | 21.84956 | 114.45439 | 20654 ft | 438 kts | 123° |
| 2026-04-24 12:45 | 21.83699 | 114.48439 | 21239 ft | 443 kts | 109° |
| 2026-04-24 12:45 | 21.82842 | 114.51592 | 21783 ft | 446 kts | 107° |
| 2026-04-24 12:45 | 21.82029 | 114.54826 | 22339 ft | 449 kts | 107° |
| 2026-04-24 12:46 | 21.81208 | 114.58075 | 22888 ft | 452 kts | 107° |
| 2026-04-24 12:46 | 21.80376 | 114.61338 | 23433 ft | 454 kts | 107° |
| 2026-04-24 12:46 | 21.79531 | 114.64627 | 23857 ft | 457 kts | 108° |
| 2026-04-24 12:46 | 21.78677 | 114.67936 | 24252 ft | 461 kts | 108° |
| 2026-04-24 12:47 | 21.77813 | 114.71273 | 24660 ft | 465 kts | 108° |
| 2026-04-24 12:47 | 21.76940 | 114.74641 | 25087 ft | 469 kts | 108° |
| 2026-04-24 12:47 | 21.76058 | 114.78040 | 25536 ft | 473 kts | 108° |
| 2026-04-24 12:47 | 21.75183 | 114.81421 | 25970 ft | 478 kts | 108° |
| 2026-04-24 12:48 | 21.74511 | 114.84939 | 26403 ft | 484 kts | 99° |
| 2026-04-24 12:48 | 21.74282 | 114.88570 | 26869 ft | 490 kts | 94° |
| 2026-04-24 12:48 | 21.74218 | 114.92250 | 27306 ft | 494 kts | 92° |
| 2026-04-24 12:48 | 21.74231 | 114.95968 | 27744 ft | 499 kts | 91° |
| 2026-04-24 12:49 | 21.74270 | 114.99712 | 28197 ft | 503 kts | 91° |
| 2026-04-24 12:49 | 21.74309 | 115.03482 | 28692 ft | 506 kts | 91° |
| 2026-04-24 12:49 | 21.74337 | 115.07231 | 29091 ft | 510 kts | 91° |
| 2026-04-24 12:49 | 21.74351 | 115.11059 | 29518 ft | 514 kts | 91° |
| 2026-04-24 12:50 | 21.74355 | 115.14919 | 29946 ft | 517 kts | 91° |
| 2026-04-24 12:50 | 21.74352 | 115.18796 | 30321 ft | 521 kts | 91° |
| 2026-04-24 12:50 | 21.74346 | 115.22711 | 30612 ft | 525 kts | 91° |
| 2026-04-24 12:50 | 21.74340 | 115.26660 | 30913 ft | 530 kts | 91° |
| 2026-04-24 12:51 | 21.74331 | 115.30637 | 31214 ft | 534 kts | 91° |
| 2026-04-24 12:51 | 21.74320 | 115.34640 | 31498 ft | 538 kts | 91° |
| 2026-04-24 12:51 | 21.74308 | 115.38692 | 31677 ft | 545 kts | 91° |
| 2026-04-24 12:51 | 21.74295 | 115.42782 | 31972 ft | 548 kts | 91° |
| 2026-04-24 12:52 | 21.74283 | 115.46838 | 32259 ft | 551 kts | 91° |
| 2026-04-24 12:52 | 21.74269 | 115.50976 | 32536 ft | 555 kts | 91° |
| 2026-04-24 12:52 | 21.74255 | 115.55140 | 32807 ft | 559 kts | 91° |
| 2026-04-24 12:52 | 21.74239 | 115.59331 | 33052 ft | 562 kts | 91° |
| 2026-04-24 12:53 | 21.74221 | 115.63544 | 33308 ft | 565 kts | 91° |
| 2026-04-24 12:53 | 21.74205 | 115.67781 | 33629 ft | 567 kts | 91° |
| 2026-04-24 12:53 | 21.74189 | 115.72025 | 33915 ft | 569 kts | 91° |
| 2026-04-24 12:53 | 21.74172 | 115.76286 | 34209 ft | 570 kts | 91° |
| 2026-04-24 12:54 | 21.74154 | 115.80546 | 34580 ft | 568 kts | 92° |
| 2026-04-24 12:54 | 21.74135 | 115.84725 | 35046 ft | 565 kts | 92° |
| 2026-04-24 12:54 | 21.74114 | 115.88935 | 35522 ft | 561 kts | 92° |
| 2026-04-24 12:54 | 21.74093 | 115.93116 | 35977 ft | 558 kts | 92° |
| 2026-04-24 12:55 | 21.74070 | 115.97279 | 36408 ft | 555 kts | 92° |
| 2026-04-24 12:55 | 21.74046 | 116.01413 | 36830 ft | 553 kts | 92° |
| 2026-04-24 12:55 | 21.74020 | 116.05550 | 37011 ft | 553 kts | 93° |
| 2026-04-24 12:56 | 21.73966 | 116.13794 | 37027 ft | 551 kts | 93° |
| 2026-04-24 12:56 | 21.73908 | 116.21974 | 37027 ft | 551 kts | 93° |
| 2026-04-24 12:57 | 21.73846 | 116.30219 | 37027 ft | 551 kts | 93° |
| 2026-04-24 12:57 | 21.73781 | 116.38471 | 37028 ft | 552 kts | 93° |
| 2026-04-24 12:58 | 21.73711 | 116.46721 | 37033 ft | 552 kts | 93° |
| 2026-04-24 12:58 | 21.73638 | 116.54974 | 37028 ft | 552 kts | 93° |
| 2026-04-24 12:59 | 21.73560 | 116.63163 | 37031 ft | 551 kts | 93° |
| 2026-04-24 12:59 | 21.73479 | 116.71402 | 37031 ft | 551 kts | 93° |
| 2026-04-24 13:00 | 21.74121 | 116.79606 | 37056 ft | 554 kts | 77° |
| 2026-04-24 13:00 | 21.76576 | 116.87489 | 37026 ft | 558 kts | 69° |
| 2026-04-24 13:01 | 21.79382 | 116.95209 | 37036 ft | 558 kts | 68° |
| 2026-04-24 13:01 | 21.82244 | 117.02957 | 37037 ft | 557 kts | 68° |
| 2026-04-24 13:02 | 21.85073 | 117.10723 | 37037 ft | 557 kts | 69° |
| 2026-04-24 13:02 | 21.87876 | 117.18493 | 37028 ft | 557 kts | 69° |
| 2026-04-24 13:03 | 21.90644 | 117.26195 | 37039 ft | 553 kts | 69° |
| 2026-04-24 13:03 | 21.93413 | 117.33911 | 37039 ft | 552 kts | 69° |
| 2026-04-24 13:04 | 21.96186 | 117.41649 | 37042 ft | 556 kts | 69° |
| 2026-04-24 13:04 | 21.99084 | 117.49392 | 37037 ft | 558 kts | 63° |
| 2026-04-24 13:05 | 22.02908 | 117.56637 | 37041 ft | 554 kts | 58° |
| 2026-04-24 13:05 | 22.06896 | 117.63680 | 37042 ft | 554 kts | 58° |
| 2026-04-24 13:06 | 22.10938 | 117.70743 | 37048 ft | 554 kts | 58° |
| 2026-04-24 13:06 | 22.14966 | 117.77823 | 37069 ft | 554 kts | 58° |
| 2026-04-24 13:07 | 22.18993 | 117.84936 | 37043 ft | 558 kts | 58° |
| 2026-04-24 13:07 | 22.23010 | 117.92050 | 37051 ft | 559 kts | 58° |
| 2026-04-24 13:08 | 22.26187 | 117.99668 | 37049 ft | 558 kts | 77° |
| 2026-04-24 13:08 | 22.26839 | 118.03770 | 37046 ft | 554 kts | 89° |
| 2026-04-24 13:08 | 22.26802 | 118.07909 | 37044 ft | 550 kts | 98° |
| 2026-04-24 13:09 | 22.25541 | 118.20142 | 37045 ft | 545 kts | 101° |
| 2026-04-24 13:09 | 22.24533 | 118.28197 | 37045 ft | 545 kts | 101° |
| 2026-04-24 13:10 | 22.23552 | 118.36312 | 37048 ft | 545 kts | 101° |
| 2026-04-24 13:10 | 22.22600 | 118.44430 | 37045 ft | 544 kts | 101° |
| 2026-04-24 13:11 | 22.21657 | 118.52523 | 37045 ft | 544 kts | 101° |
| 2026-04-24 13:11 | 22.20719 | 118.60566 | 37042 ft | 543 kts | 101° |
| 2026-04-24 13:12 | 22.19765 | 118.68655 | 37034 ft | 543 kts | 101° |
| 2026-04-24 13:12 | 22.18807 | 118.76734 | 37039 ft | 543 kts | 101° |
| 2026-04-24 13:13 | 22.17846 | 118.84806 | 37034 ft | 542 kts | 101° |
| 2026-04-24 13:13 | 22.16883 | 118.92873 | 37034 ft | 542 kts | 101° |
| 2026-04-24 13:14 | 22.15926 | 119.00880 | 37033 ft | 542 kts | 101° |
| 2026-04-24 13:14 | 22.14951 | 119.08931 | 37034 ft | 541 kts | 101° |
| 2026-04-24 13:15 | 22.13972 | 119.16969 | 37032 ft | 541 kts | 101° |
| 2026-04-24 13:15 | 22.12993 | 119.25007 | 37021 ft | 541 kts | 101° |
| 2026-04-24 13:16 | 22.12014 | 119.33037 | 37028 ft | 540 kts | 101° |
| 2026-04-24 13:16 | 22.11039 | 119.41007 | 37023 ft | 539 kts | 101° |
| 2026-04-24 13:17 | 22.10053 | 119.49023 | 37023 ft | 539 kts | 101° |
| 2026-04-24 13:17 | 22.09063 | 119.57032 | 37020 ft | 539 kts | 101° |
| 2026-04-24 13:18 | 22.08070 | 119.65051 | 37030 ft | 539 kts | 101° |
| 2026-04-24 13:18 | 22.07406 | 119.68986 | 36717 ft | 527 kts | 110° |
| 2026-04-24 13:18 | 22.06030 | 119.72592 | 35951 ft | 517 kts | 125° |
| 2026-04-24 13:19 | 22.03935 | 119.75625 | 35184 ft | 507 kts | 140° |
| 2026-04-24 13:19 | 22.01184 | 119.77992 | 34396 ft | 496 kts | 155° |
| 2026-04-24 13:19 | 21.98057 | 119.79461 | 33507 ft | 487 kts | 169° |
| 2026-04-24 13:19 | 21.94785 | 119.79980 | 32539 ft | 480 kts | 184° |
| 2026-04-24 13:20 | 21.91501 | 119.79539 | 31573 ft | 473 kts | 199° |
| 2026-04-24 13:20 | 21.88500 | 119.78171 | 30639 ft | 468 kts | 214° |
| 2026-04-24 13:20 | 21.85990 | 119.75979 | 29690 ft | 465 kts | 230° |
| 2026-04-24 13:20 | 21.84180 | 119.73135 | 28837 ft | 460 kts | 245° |
| 2026-04-24 13:21 | 21.83206 | 119.69883 | 28099 ft | 456 kts | 260° |
| 2026-04-24 13:21 | 21.83134 | 119.66492 | 27400 ft | 455 kts | 275° |
| 2026-04-24 13:21 | 21.83964 | 119.63212 | 26750 ft | 457 kts | 290° |
| 2026-04-24 13:21 | 21.85604 | 119.60339 | 26113 ft | 461 kts | 306° |
| 2026-04-24 13:22 | 21.87979 | 119.58009 | 25464 ft | 467 kts | 321° |
| 2026-04-24 13:22 | 21.90847 | 119.56430 | 24479 ft | 463 kts | 335° |
| 2026-04-24 13:22 | 21.94009 | 119.55717 | 23134 ft | 469 kts | 352° |
| 2026-04-24 13:22 | 21.97272 | 119.55967 | 21691 ft | 474 kts | 8° |
| 2026-04-24 13:23 | 22.00366 | 119.57169 | 20382 ft | 473 kts | 25° |
| 2026-04-24 13:23 | 22.03178 | 119.58995 | 19255 ft | 474 kts | 33° |
| 2026-04-24 13:23 | 22.05680 | 119.61289 | 18666 ft | 470 kts | 46° |
| 2026-04-24 13:23 | 22.07591 | 119.64093 | 18149 ft | 461 kts | 62° |
| 2026-04-24 13:24 | 22.08701 | 119.67297 | 17457 ft | 453 kts | 80° |
| 2026-04-24 13:24 | 22.08899 | 119.70589 | 16737 ft | 443 kts | 98° |
| 2026-04-24 13:24 | 22.08349 | 119.73816 | 16100 ft | 434 kts | 107° |
| 2026-04-24 13:24 | 22.07673 | 119.76966 | 15486 ft | 429 kts | 106° |
| 2026-04-24 13:25 | 22.07048 | 119.80098 | 15128 ft | 427 kts | 105° |
| 2026-04-24 13:25 | 22.06464 | 119.83236 | 15034 ft | 428 kts | 104° |
| 2026-04-24 13:25 | 22.05905 | 119.86386 | 15024 ft | 427 kts | 103° |
| 2026-04-24 13:25 | 22.05369 | 119.89527 | 15025 ft | 427 kts | 103° |
| 2026-04-24 13:26 | 22.05055 | 119.92721 | 15022 ft | 430 kts | 94° |
| 2026-04-24 13:26 | 22.05231 | 119.95940 | 15023 ft | 432 kts | 83° |
| 2026-04-24 13:26 | 22.05969 | 119.99086 | 15023 ft | 435 kts | 71° |
| 2026-04-24 13:26 | 22.07287 | 120.01970 | 15023 ft | 436 kts | 57° |
| 2026-04-24 13:27 | 22.09171 | 120.04519 | 14958 ft | 434 kts | 45° |
| 2026-04-24 13:27 | 22.11525 | 120.06531 | 14714 ft | 432 kts | 28° |
| 2026-04-24 13:27 | 22.14308 | 120.07650 | 14491 ft | 426 kts | 8° |
| 2026-04-24 13:27 | 22.17215 | 120.07763 | 14181 ft | 410 kts | 349° |
| 2026-04-24 13:28 | 22.19867 | 120.06984 | 13235 ft | 386 kts | 333° |
| 2026-04-24 13:28 | 22.22348 | 120.05897 | 11751 ft | 387 kts | 338° |
| 2026-04-24 13:28 | 22.24947 | 120.05147 | 10585 ft | 384 kts | 345° |
| 2026-04-24 13:28 | 22.27494 | 120.04575 | 10001 ft | 361 kts | 346° |
| 2026-04-24 13:29 | 22.29798 | 120.04066 | 9572 ft | 337 kts | 346° |
| 2026-04-24 13:29 | 22.31987 | 120.03585 | 9163 ft | 314 kts | 346° |
| 2026-04-24 13:29 | 22.34069 | 120.03128 | 8686 ft | 298 kts | 346° |
| 2026-04-24 13:29 | 22.36048 | 120.02691 | 8302 ft | 282 kts | 346° |
| 2026-04-24 13:30 | 22.37909 | 120.02280 | 8008 ft | 265 kts | 346° |
| 2026-04-24 13:30 | 22.39676 | 120.01889 | 7571 ft | 255 kts | 346° |
| 2026-04-24 13:30 | 22.41402 | 120.01504 | 7055 ft | 251 kts | 346° |
| 2026-04-24 13:30 | 22.43127 | 120.01266 | 6525 ft | 250 kts | 356° |
| 2026-04-24 13:31 | 22.44860 | 120.01488 | 6084 ft | 253 kts | 15° |
| 2026-04-24 13:31 | 22.46479 | 120.02201 | 5826 ft | 250 kts | 24° |
| 2026-04-24 13:31 | 22.48028 | 120.03045 | 5509 ft | 248 kts | 26° |
| 2026-04-24 13:31 | 22.49547 | 120.03920 | 5218 ft | 246 kts | 26° |
| 2026-04-24 13:32 | 22.51012 | 120.04781 | 4903 ft | 238 kts | 27° |
| 2026-04-24 13:32 | 22.52445 | 120.05633 | 4453 ft | 233 kts | 27° |
| 2026-04-24 13:32 | 22.53854 | 120.06474 | 3991 ft | 229 kts | 27° |
| 2026-04-24 13:32 | 22.55241 | 120.07304 | 3655 ft | 227 kts | 28° |
| 2026-04-24 13:33 | 22.56599 | 120.08153 | 3378 ft | 224 kts | 33° |
| 2026-04-24 13:33 | 22.57727 | 120.09296 | 3102 ft | 222 kts | 54° |
| 2026-04-24 13:33 | 22.58323 | 120.10787 | 3007 ft | 213 kts | 78° |
| 2026-04-24 13:33 | 22.58415 | 120.12369 | 3018 ft | 210 kts | 91° |
| 2026-04-24 13:34 | 22.58368 | 120.13954 | 3012 ft | 211 kts | 92° |
| 2026-04-24 13:34 | 22.58310 | 120.15543 | 3009 ft | 212 kts | 92° |
| 2026-04-24 13:34 | 22.58256 | 120.17118 | 3004 ft | 212 kts | 92° |
| 2026-04-24 13:34 | 22.58205 | 120.18708 | 2968 ft | 209 kts | 91° |
| 2026-04-24 13:35 | 22.58161 | 120.20225 | 2851 ft | 195 kts | 91° |
| 2026-04-24 13:35 | 22.58117 | 120.21649 | 2581 ft | 186 kts | 91° |
| 2026-04-24 13:35 | 22.58075 | 120.23008 | 2203 ft | 177 kts | 91° |
| 2026-04-24 13:35 | 22.58034 | 120.24308 | 1842 ft | 171 kts | 91° |
| 2026-04-24 13:36 | 22.57996 | 120.25578 | 1534 ft | 164 kts | 90° |
| 2026-04-24 13:36 | 22.57965 | 120.26782 | 1288 ft | 156 kts | 90° |
| 2026-04-24 13:36 | 22.57939 | 120.27900 | 1058 ft | 146 kts | 89° |
| 2026-04-24 13:36 | 22.57900 | 120.28964 | 868 ft | 137 kts | 90° |
| 2026-04-24 13:37 | 22.57851 | 120.29985 | 713 ft | 136 kts | 90° |
| 2026-04-24 13:37 | 22.57834 | 120.31016 | 552 ft | 138 kts | 88° |
| 2026-04-24 13:37 | 22.57801 | 120.32048 | 369 ft | 138 kts | 90° |
| 2026-04-24 13:37 | 22.57770 | 120.33080 | 176 ft | 137 kts | 88° |
| 2026-04-24 13:38 | 22.57732 | 120.34108 | 36 ft | 135 kts | 90° |
| 2026-04-24 13:38 | 22.57709 | 120.34973 | 38 ft | 95 kts | 92° |
| 2026-04-24 13:38 | 22.57691 | 120.35538 | 39 ft | 55 kts | 91° |
| 2026-04-24 13:38 | 22.57683 | 120.35811 | 43 ft | 22 kts | 92° |
| 2026-04-24 13:39 | 22.57650 | 120.35911 | 43 ft | 14 kts | 149° |
| 2026-04-24 13:39 | 22.57547 | 120.35913 | 42 ft | 16 kts | 200° |
| 2026-04-24 13:39 | 22.57515 | 120.35807 | 42 ft | 17 kts | 270° |
| 2026-04-24 13:39 | 22.57517 | 120.35671 | 41 ft | 19 kts | 272° |
| 2026-04-24 13:40 | 22.57523 | 120.35514 | 40 ft | 22 kts | 273° |
| 2026-04-24 13:40 | 22.57532 | 120.35337 | 39 ft | 25 kts | 272° |
| 2026-04-24 13:40 | 22.57538 | 120.35151 | 39 ft | 23 kts | 272° |
| 2026-04-24 13:40 | 22.57543 | 120.34967 | 38 ft | 26 kts | 271° |
| 2026-04-24 13:41 | 22.57549 | 120.34766 | 38 ft | 28 kts | 272° |
| 2026-04-24 13:41 | 22.57556 | 120.34550 | 26 ft | 30 kts | 272° |
| 2026-04-24 13:41 | 22.57561 | 120.34387 | 37 ft | 16 kts | 272° |
| 2026-04-24 13:41 | 22.57563 | 120.34317 | 36 ft | 10 kts | 272° |
| 2026-04-24 13:42 | 22.57566 | 120.34227 | 36 ft | 14 kts | 272° |
| 2026-04-24 13:42 | 22.57546 | 120.34136 | 36 ft | 13 kts | 219° |
| 2026-04-24 13:42 | 22.57453 | 120.34123 | 36 ft | 15 kts | 185° |
| 2026-04-24 13:42 | 22.57383 | 120.34061 | 35 ft | 13 kts | 213° |
| 2026-04-24 13:43 | 22.57313 | 120.34051 | 35 ft | 8 kts | 179° |
| 2026-04-24 13:43 | 22.57267 | 120.34069 | 35 ft | 6 kts | 123° |
| 2026-04-24 13:43 | 22.57265 | 120.34100 | 35 ft | 5 kts | 91° |
| 2026-04-24 13:43 | 22.57265 | 120.34108 | 35 ft | 1 kts | 90° |
| 2026-04-24 13:44 | 22.57265 | 120.34115 | 35 ft | 0 kts | 90° |